Time;durP1;ratioP1;P1;durP2;ratioP2;P2;SDS_P1;SDS_P2;PMS_P1;PMS_P2;Temp;Humidity;BMP_temperature;BMP_pressure;BME280_temperature;BME280_humidity;BME280_pressure;Samples;Min_cycle;Max_cycle;Signal;HPM_P1;HPM_P2
2021/05/08 00:01:59;;;;;;;6.50;4.78;;;8.70;57.10;;;;;;5045914;28;21361;-74
2021/05/08 00:04:28;;;;;;;6.10;4.67;;;8.90;56.90;;;;;;5044701;28;20120;-75
2021/05/08 00:06:56;;;;;;;7.47;4.93;;;8.90;56.40;;;;;;5044658;28;20507;-75
2021/05/08 00:09:23;;;;;;;7.40;4.50;;;8.90;56.80;;;;;;5045277;28;20057;-75
2021/05/08 00:11:53;;;;;;;5.53;3.78;;;8.90;56.20;;;;;;5042852;28;20052;-73
2021/05/08 00:14:20;;;;;;;7.85;4.10;;;8.80;56.50;;;;;;5045238;28;20048;-73
2021/05/08 00:16:46;;;;;;;5.25;3.08;;;8.90;56.30;;;;;;5046086;28;20134;-73
2021/05/08 00:19:13;;;;;;;6.50;3.38;;;8.80;55.90;;;;;;5045174;28;20164;-75
2021/05/08 00:21:39;;;;;;;7.13;4.15;;;8.70;55.70;;;;;;5040646;28;20523;-74
2021/05/08 00:24:06;;;;;;;5.32;3.83;;;8.80;56.10;;;;;;5037348;28;20052;-75
2021/05/08 00:26:32;;;;;;;9.55;5.55;;;8.80;56.40;;;;;;5039619;28;20140;-73
2021/05/08 00:28:59;;;;;;;7.05;3.80;;;8.70;56.30;;;;;;5039299;28;20076;-74
2021/05/08 00:31:26;;;;;;;5.05;3.58;;;8.90;56.20;;;;;;5036528;28;20510;-74
2021/05/08 00:33:55;;;;;;;3.87;3.10;;;8.70;56.50;;;;;;5036601;28;20057;-74
2021/05/08 00:36:22;;;;;;;5.57;3.60;;;8.60;56.30;;;;;;5040634;28;20349;-73
2021/05/08 00:38:48;;;;;;;5.38;3.60;;;8.50;56.50;;;;;;5037732;28;20068;-74
2021/05/08 00:41:14;;;;;;;4.90;3.40;;;8.60;55.90;;;;;;5038743;28;20511;-74
2021/05/08 00:43:41;;;;;;;5.25;3.20;;;8.50;56.30;;;;;;5038420;28;20128;-74
2021/05/08 00:46:07;;;;;;;4.55;3.40;;;8.60;56.10;;;;;;5040241;28;20565;-74
2021/05/08 00:48:34;;;;;;;4.63;3.42;;;8.60;56.30;;;;;;5037344;28;20130;-74
2021/05/08 00:51:01;;;;;;;4.50;3.42;;;8.60;56.20;;;;;;5039323;28;20052;-75
2021/05/08 00:53:27;;;;;;;6.90;3.63;;;8.60;56.40;;;;;;5038820;28;20488;-74
2021/05/08 00:55:54;;;;;;;4.57;3.20;;;8.60;56.90;;;;;;5040549;28;20052;-75
2021/05/08 00:58:21;;;;;;;6.10;3.10;;;8.70;56.50;;;;;;5036494;28;20439;-74
2021/05/08 01:00:51;;;;;;;5.55;3.67;;;8.80;56.10;;;;;;5039801;28;20138;-74
2021/05/08 01:03:18;;;;;;;;;;;8.50;56.40;;;;;;5036620;28;20080;-74
2021/05/08 01:05:44;;;;;;;5.72;3.10;;;8.40;56.90;;;;;;5051953;28;19928;-74
2021/05/08 01:08:10;;;;;;;4.90;3.45;;;8.50;56.60;;;;;;5037676;28;20049;-74
2021/05/08 01:10:37;;;;;;;4.95;3.55;;;8.30;57.00;;;;;;5038103;28;20460;-74
2021/05/08 01:13:03;;;;;;;5.90;3.88;;;8.40;57.30;;;;;;5038370;28;20402;-74
2021/05/08 01:15:30;;;;;;;7.45;3.70;;;8.40;57.30;;;;;;5038339;28;20436;-74
2021/05/08 01:17:57;;;;;;;4.90;3.20;;;8.50;57.30;;;;;;5038655;28;20083;-74
2021/05/08 01:20:24;;;;;;;7.22;3.30;;;8.40;56.80;;;;;;5040295;28;20183;-74
2021/05/08 01:22:52;;;;;;;5.88;3.40;;;8.60;56.40;;;;;;5037644;28;20542;-74
2021/05/08 01:25:26;;;;;;;5.03;3.15;;;8.50;57.00;;;;;;5037304;28;20060;-74
2021/05/08 01:27:56;;;;;;;4.88;3.13;;;8.40;57.20;;;;;;5037213;28;20060;-74
2021/05/08 01:30:30;;;;;;;4.73;3.43;;;8.30;57.20;;;;;;5035270;28;20475;-73
2021/05/08 01:32:57;;;;;;;4.43;3.08;;;8.20;57.50;;;;;;5034401;28;20722;-74
2021/05/08 01:35:24;;;;;;;5.05;3.33;;;8.30;57.70;;;;;;5036037;28;20068;-74
2021/05/08 01:37:50;;;;;;;6.50;3.33;;;8.50;57.30;;;;;;5035630;28;20139;-74
2021/05/08 01:40:17;;;;;;;6.57;3.47;;;8.30;56.70;;;;;;5039023;28;20052;-74
2021/05/08 01:42:48;;;;;;;4.93;3.33;;;8.50;56.60;;;;;;5038409;28;20485;-74
2021/05/08 01:45:22;;;;;;;5.05;3.20;;;8.40;56.10;;;;;;5041189;28;20049;-74
2021/05/08 01:47:49;;;;;;;4.30;3.08;;;8.30;56.40;;;;;;5042207;28;20134;-74
2021/05/08 01:50:18;;;;;;;5.40;3.60;;;8.30;56.40;;;;;;5042252;28;20408;-73
2021/05/08 01:52:45;;;;;;;5.45;3.72;;;8.30;56.50;;;;;;5044386;28;20075;-74
2021/05/08 01:55:17;;;;;;;5.90;3.65;;;8.40;56.10;;;;;;5046221;28;20073;-74
2021/05/08 01:57:49;;;;;;;4.95;3.33;;;8.40;56.00;;;;;;5046494;28;20052;-73
2021/05/08 02:00:21;;;;;;;6.25;3.17;;;8.20;55.90;;;;;;5045360;28;20056;-74
2021/05/08 02:02:50;;;;;;;5.05;3.58;;;8.30;56.10;;;;;;5043608;28;20494;-74
2021/05/08 02:05:16;;;;;;;4.65;3.28;;;8.20;55.90;;;;;;5042011;28;20120;-74
2021/05/08 02:07:43;;;;;;;5.55;3.42;;;8.20;56.10;;;;;;5035544;28;20135;-74
2021/05/08 02:10:11;;;;;;;7.20;3.47;;;8.40;56.20;;;;;;5036854;28;20104;-74
2021/05/08 02:12:38;;;;;;;5.75;3.65;;;8.40;56.20;;;;;;5038253;28;20431;-74
2021/05/08 02:15:10;;;;;;;5.60;3.80;;;8.30;56.00;;;;;;5041209;28;20049;-74
2021/05/08 02:17:37;;;;;;;4.82;3.63;;;8.00;56.70;;;;;;5041395;28;20126;-73
2021/05/08 02:20:10;;;;;;;6.25;3.90;;;8.00;56.60;;;;;;5042159;28;20432;-73
2021/05/08 02:22:37;;;;;;;5.15;3.80;;;8.10;56.70;;;;;;5040908;28;20056;-73
2021/05/08 02:25:06;;;;;;;6.65;4.10;;;8.10;56.70;;;;;;5041363;28;20138;-75
2021/05/08 02:27:34;;;;;;;6.28;4.25;;;8.20;57.10;;;;;;5046170;28;20439;-74
2021/05/08 02:30:01;;;;;;;5.28;4.18;;;8.20;56.70;;;;;;5044950;28;20040;-74
2021/05/08 02:32:27;;;;;;;8.23;4.13;;;8.20;56.50;;;;;;5048689;28;20122;-73
2021/05/08 02:34:55;;;;;;;7.22;4.45;;;8.10;56.40;;;;;;5062182;28;20045;-74
2021/05/08 02:37:22;;;;;;;6.72;4.28;;;7.90;56.90;;;;;;5042048;28;20049;-74
2021/05/08 02:39:49;;;;;;;5.15;4.10;;;8.00;56.80;;;;;;5044991;28;20721;-74
2021/05/08 02:42:15;;;;;;;7.63;4.78;;;7.80;56.90;;;;;;5038688;28;20132;-74
2021/05/08 02:44:41;;;;;;;5.72;4.43;;;8.00;57.30;;;;;;5041388;28;20241;-74
2021/05/08 02:47:17;;;;;;;6.00;4.17;;;8.00;57.20;;;;;;5038299;28;20056;-74
2021/05/08 02:49:48;;;;;;;8.57;4.63;;;8.10;56.90;;;;;;5055629;28;20265;-74
2021/05/08 02:52:16;;;;;;;6.15;4.28;;;7.90;56.80;;;;;;5039990;28;20049;-74
2021/05/08 02:54:43;;;;;;;7.55;4.20;;;7.90;57.10;;;;;;5042902;28;20069;-74
2021/05/08 02:57:09;;;;;;;6.20;4.20;;;7.70;57.30;;;;;;5053880;28;20492;-74
2021/05/08 02:59:36;;;;;;;5.28;3.40;;;7.70;57.20;;;;;;5043115;28;20722;-74
2021/05/08 03:02:04;;;;;;;6.57;3.72;;;7.70;57.40;;;;;;5045373;28;20049;-74
2021/05/08 03:04:31;;;;;;;4.32;3.20;;;7.90;57.20;;;;;;5044109;28;20048;-74
2021/05/08 03:06:57;;;;;;;8.77;3.92;;;7.80;57.30;;;;;;5040057;28;20088;-73
2021/05/08 03:09:24;;;;;;;7.53;3.78;;;7.70;57.50;;;;;;5040129;28;20052;-74
2021/05/08 03:11:50;;;;;;;5.13;3.50;;;7.80;57.50;;;;;;5041542;28;20548;-74
2021/05/08 03:14:17;;;;;;;5.38;3.60;;;7.70;57.30;;;;;;5040230;28;20477;-74
2021/05/08 03:17:01;;;;;;;4.60;3.15;;;7.80;57.60;;;;;;5039021;28;20485;-73
2021/05/08 03:19:36;;;;;;;4.30;3.13;;;7.80;57.30;;;;;;5053543;28;20224;-73
2021/05/08 03:22:04;;;;;;;4.30;3.30;;;7.80;57.30;;;;;;5035876;28;20087;-74
2021/05/08 03:24:31;;;;;;;4.78;3.45;;;7.90;57.10;;;;;;5039405;28;20056;-74
2021/05/08 03:26:58;;;;;;;5.20;3.15;;;7.80;56.70;;;;;;5043285;28;20063;-73
2021/05/08 03:29:24;;;;;;;3.83;3.00;;;8.00;57.70;;;;;;5045630;28;20110;-75
2021/05/08 03:31:50;;;;;;;4.38;3.10;;;8.00;56.80;;;;;;5044784;28;20072;-74
2021/05/08 03:34:17;;;;;;;4.03;2.85;;;7.90;57.30;;;;;;5044842;28;20094;-74
2021/05/08 03:36:43;;;;;;;5.85;3.08;;;7.90;57.20;;;;;;5047080;28;20072;-74
2021/05/08 03:39:10;;;;;;;6.70;2.83;;;7.80;57.60;;;;;;5049048;28;20053;-74
2021/05/08 03:41:36;;;;;;;3.55;2.90;;;7.80;57.70;;;;;;5042817;28;20103;-74
2021/05/08 03:44:03;;;;;;;3.88;3.00;;;7.90;57.80;;;;;;5045473;28;20084;-74
2021/05/08 03:46:30;;;;;;;4.65;3.25;;;7.90;57.40;;;;;;5043701;28;20464;-74
2021/05/08 03:48:56;;;;;;;5.25;2.80;;;7.80;57.60;;;;;;5044288;28;20745;-74
2021/05/08 03:51:26;;;;;;;5.25;3.20;;;7.80;58.10;;;;;;5043758;28;20044;-74
2021/05/08 03:53:54;;;;;;;5.45;3.25;;;7.80;58.00;;;;;;5046945;28;20048;-74
2021/05/08 03:56:22;;;;;;;5.45;3.30;;;7.80;58.40;;;;;;5043272;28;20069;-74
2021/05/08 03:58:49;;;;;;;5.95;2.80;;;7.80;58.60;;;;;;5043124;28;20168;-75
2021/05/08 04:01:16;;;;;;;5.97;3.25;;;7.70;58.90;;;;;;5046992;28;20488;-73
2021/05/08 04:03:43;;;;;;;5.75;3.25;;;7.60;58.90;;;;;;5042589;28;20060;-73
2021/05/08 04:06:09;;;;;;;7.45;3.15;;;7.70;59.00;;;;;;5047471;28;20111;-74
2021/05/08 04:08:36;;;;;;;5.00;3.15;;;7.70;59.00;;;;;;5046230;28;20053;-74
2021/05/08 04:11:02;;;;;;;4.13;2.90;;;7.80;59.30;;;;;;5043684;28;20057;-74
2021/05/08 04:13:29;;;;;;;4.03;3.00;;;7.90;58.80;;;;;;5042930;28;20048;-74
2021/05/08 04:15:55;;;;;;;5.05;3.30;;;7.90;58.60;;;;;;5046010;28;20495;-74
2021/05/08 04:18:22;;;;;;;5.07;3.60;;;7.70;59.00;;;;;;5042357;28;20053;-74
2021/05/08 04:20:48;;;;;;;5.47;3.30;;;7.70;59.00;;;;;;5043355;28;20045;-74
2021/05/08 04:23:15;;;;;;;7.07;3.70;;;7.70;59.40;;;;;;5045191;28;20053;-74
2021/05/08 04:25:41;;;;;;;3.67;3.15;;;7.80;59.20;;;;;;5043028;28;20052;-74
2021/05/08 04:28:11;;;;;;;4.97;3.22;;;7.80;58.60;;;;;;5045598;28;20139;-74
2021/05/08 04:30:38;;;;;;;4.13;3.17;;;7.50;59.50;;;;;;5042583;28;20060;-75
2021/05/08 04:33:20;;;;;;;3.42;2.90;;;7.60;59.80;;;;;;5042114;28;20049;-74
2021/05/08 04:35:47;;;;;;;5.65;3.67;;;7.70;59.50;;;;;;5047781;28;20442;-74
2021/05/08 04:38:13;;;;;;;5.22;2.83;;;7.90;59.90;;;;;;5040756;28;20061;-74
2021/05/08 04:40:40;;;;;;;4.53;2.97;;;7.80;59.70;;;;;;5045037;28;20799;-75
2021/05/08 04:43:07;;;;;;;4.70;3.17;;;7.60;59.70;;;;;;5042664;28;20056;-74
2021/05/08 04:45:33;;;;;;;6.45;3.45;;;7.60;60.00;;;;;;5044205;28;20049;-74
2021/05/08 04:47:59;;;;;;;4.60;3.22;;;7.60;60.00;;;;;;5040311;28;20044;-74
2021/05/08 04:50:27;;;;;;;5.00;3.15;;;7.70;60.00;;;;;;5043331;28;20051;-74
2021/05/08 04:52:54;;;;;;;7.63;3.75;;;8.10;59.70;;;;;;5040481;28;20045;-73
2021/05/08 04:55:23;;;;;;;4.68;3.85;;;8.20;59.30;;;;;;5060379;28;20046;-74
2021/05/08 04:57:49;;;;;;;4.85;3.60;;;8.20;58.60;;;;;;5041459;28;20053;-74
2021/05/08 05:00:18;;;;;;;6.47;3.70;;;8.00;58.90;;;;;;5047341;28;20231;-73
2021/05/08 05:02:46;;;;;;;5.45;3.40;;;8.20;58.90;;;;;;5043506;28;20045;-74
2021/05/08 05:05:18;;;;;;;8.00;3.70;;;8.20;58.80;;;;;;5044299;28;20519;-74
2021/05/08 05:07:44;;;;;;;5.03;3.80;;;8.20;58.70;;;;;;5043517;28;20534;-74
2021/05/08 05:10:12;;;;;;;6.38;4.20;;;8.10;58.80;;;;;;5043062;28;20772;-74
2021/05/08 05:12:38;;;;;;;8.23;4.25;;;8.30;58.60;;;;;;5043232;28;20412;-74
2021/05/08 05:15:09;;;;;;;8.38;3.88;;;8.20;58.20;;;;;;5044299;28;20681;-74
2021/05/08 05:17:35;;;;;;;5.30;3.58;;;8.40;58.80;;;;;;5042108;28;20318;-73
2021/05/08 05:20:04;;;;;;;6.97;4.20;;;8.50;58.10;;;;;;5039106;28;20131;-73
2021/05/08 05:22:30;;;;;;;5.97;4.00;;;8.50;57.90;;;;;;5038321;28;20057;-73
2021/05/08 05:24:57;;;;;;;6.47;4.20;;;8.60;58.00;;;;;;5042039;28;20046;-73
2021/05/08 05:27:23;;;;;;;7.10;4.32;;;8.60;57.80;;;;;;5059850;28;20474;-74
2021/05/08 05:29:50;;;;;;;7.20;4.00;;;8.70;57.60;;;;;;5042850;28;20106;-73
2021/05/08 05:32:17;;;;;;;10.70;4.55;;;8.70;57.50;;;;;;5039885;28;20049;-74
2021/05/08 05:34:43;;;;;;;6.20;4.18;;;8.80;57.50;;;;;;5043999;28;20049;-73
2021/05/08 05:37:10;;;;;;;6.35;4.13;;;9.30;57.00;;;;;;5044628;28;20045;-73
2021/05/08 05:39:36;;;;;;;6.07;4.28;;;9.50;56.00;;;;;;5041768;28;20053;-74
2021/05/08 05:42:03;;;;;;;7.75;4.28;;;9.30;56.00;;;;;;5061027;28;20376;-75
2021/05/08 05:44:29;;;;;;;8.20;4.72;;;9.40;56.30;;;;;;5047276;28;20464;-74
2021/05/08 05:46:55;;;;;;;4.93;4.10;;;9.60;56.00;;;;;;5040705;28;20049;-74
2021/05/08 05:49:22;;;;;;;7.95;4.95;;;9.50;55.70;;;;;;5042854;28;20041;-75
2021/05/08 05:51:48;;;;;;;12.15;4.32;;;10.30;53.90;;;;;;5045329;28;20443;-74
2021/05/08 05:54:18;;;;;;;7.18;4.75;;;10.10;53.50;;;;;;5044093;28;20117;-75
2021/05/08 05:56:45;;;;;;;8.13;4.78;;;10.20;53.60;;;;;;5041898;28;20399;-75
2021/05/08 05:59:11;;;;;;;5.18;3.92;;;10.80;52.70;;;;;;5026544;28;20183;-75
2021/05/08 06:01:37;;;;;;;7.35;4.47;;;10.90;51.90;;;;;;5041580;28;20465;-74
2021/05/08 06:04:05;;;;;;;6.18;3.80;;;11.50;51.90;;;;;;5039671;28;20061;-74
2021/05/08 06:06:33;;;;;;;7.90;4.60;;;11.70;51.10;;;;;;5043745;28;20048;-74
2021/05/08 06:08:59;;;;;;;7.93;4.35;;;12.30;49.60;;;;;;5041881;28;20102;-75
2021/05/08 06:11:26;;;;;;;9.02;4.10;;;11.60;50.70;;;;;;5043010;28;20053;-73
2021/05/08 06:13:52;;;;;;;6.18;4.22;;;12.00;50.50;;;;;;5043040;28;20118;-74
2021/05/08 06:16:18;;;;;;;6.75;4.28;;;13.40;48.30;;;;;;5041765;28;20485;-74
2021/05/08 06:18:45;;;;;;;8.98;4.00;;;12.20;48.80;;;;;;5042065;28;20384;-75
2021/05/08 06:21:14;;;;;;;5.72;4.05;;;12.00;49.50;;;;;;5042805;28;20052;-74
2021/05/08 06:23:41;;;;;;;5.93;3.85;;;12.70;48.60;;;;;;5040637;28;20053;-74
2021/05/08 06:26:07;;;;;;;5.20;3.53;;;12.70;48.80;;;;;;5042925;28;20072;-75
2021/05/08 06:28:33;;;;;;;7.30;4.07;;;13.10;47.30;;;;;;5040803;28;20527;-73
2021/05/08 06:31:03;;;;;;;6.00;4.05;;;11.90;48.20;;;;;;5038866;28;20041;-74
2021/05/08 06:33:29;;;;;;;5.88;3.95;;;11.30;50.00;;;;;;5046094;28;20053;-74
2021/05/08 06:35:55;;;;;;;7.43;4.18;;;11.00;50.90;;;;;;5045155;28;20504;-75
2021/05/08 06:38:23;;;;;;;6.10;3.60;;;11.10;51.10;;;;;;5044953;28;20082;-75
2021/05/08 06:40:50;;;;;;;7.40;3.83;;;11.10;51.10;;;;;;5039954;28;20059;-75
2021/05/08 06:43:16;;;;;;;6.32;3.97;;;11.20;50.40;;;;;;5039280;28;20429;-75
2021/05/08 06:45:42;;;;;;;6.75;4.13;;;11.40;50.60;;;;;;5039763;28;20107;-75
2021/05/08 06:48:15;;;;;;;6.63;3.92;;;11.60;50.50;;;;;;5040414;28;20044;-75
2021/05/08 06:50:47;;;;;;;;;;;11.50;51.10;;;;;;5040914;28;20069;-75
2021/05/08 06:53:14;;;;;;;5.47;3.58;;;11.70;50.50;;;;;;5038701;28;20019;-74
2021/05/08 06:55:43;;;;;;;8.65;3.75;;;12.60;49.00;;;;;;5041761;28;20048;-74
2021/05/08 06:58:09;;;;;;;6.50;3.58;;;12.80;48.20;;;;;;5058606;28;20096;-74
2021/05/08 07:00:36;;;;;;;5.80;3.40;;;12.90;48.00;;;;;;5038426;28;20508;-75
2021/05/08 07:03:03;;;;;;;6.20;3.70;;;13.30;47.30;;;;;;5043238;28;20057;-75
2021/05/08 07:05:34;;;;;;;6.03;3.65;;;13.40;47.40;;;;;;5041386;28;20128;-75
2021/05/08 07:08:03;;;;;;;4.15;3.03;;;13.00;48.00;;;;;;5040246;28;20091;-75
2021/05/08 07:10:29;;;;;;;4.95;3.53;;;13.00;47.40;;;;;;5041524;28;20103;-75
2021/05/08 07:12:56;;;;;;;6.00;3.38;;;12.90;47.50;;;;;;5039468;28;20099;-75
2021/05/08 07:15:22;;;;;;;4.82;3.42;;;12.70;48.20;;;;;;5042822;28;20110;-73
2021/05/08 07:18:02;;;;;;;4.57;2.97;;;12.50;48.40;;;;;;5043589;28;20076;-75
2021/05/08 07:20:30;;;;;;;5.25;3.08;;;12.40;48.10;;;;;;5035296;28;20102;-74
2021/05/08 07:22:57;;;;;;;4.53;3.10;;;12.40;48.10;;;;;;5037174;28;20043;-74
2021/05/08 07:25:23;;;;;;;4.32;2.75;;;12.60;47.30;;;;;;5040805;28;20056;-74
2021/05/08 07:27:50;;;;;;;7.47;3.35;;;12.50;47.50;;;;;;5041786;28;20076;-74
2021/05/08 07:30:16;;;;;;;6.65;3.63;;;12.70;47.70;;;;;;5041662;28;20049;-75
2021/05/08 07:32:46;;;;;;;6.20;3.15;;;12.90;47.20;;;;;;5039896;28;20052;-74
2021/05/08 07:35:12;;;;;;;5.25;2.97;;;13.10;47.00;;;;;;5041323;28;20071;-73
2021/05/08 07:37:40;;;;;;;10.93;3.90;;;13.00;47.10;;;;;;5056494;28;20472;-74
2021/05/08 07:40:07;;;;;;;5.07;3.30;;;13.00;47.50;;;;;;5046696;28;20464;-75
2021/05/08 07:42:34;;;;;;;5.47;3.15;;;13.30;46.70;;;;;;5045830;28;20053;-74
2021/05/08 07:45:00;;;;;;;4.68;2.85;;;13.30;46.80;;;;;;5041853;28;20076;-74
2021/05/08 07:47:27;;;;;;;4.65;3.13;;;13.80;46.00;;;;;;5044340;28;20045;-74
2021/05/08 07:49:53;;;;;;;7.50;3.78;;;13.90;46.10;;;;;;5046263;28;20115;-75
2021/05/08 07:52:19;;;;;;;6.28;3.00;;;13.50;46.30;;;;;;5036876;28;20103;-74
2021/05/08 07:54:47;;;;;;;6.53;2.78;;;13.30;46.70;;;;;;5038963;28;20053;-75
2021/05/08 07:57:16;;;;;;;4.03;2.67;;;13.20;47.40;;;;;;5043608;28;20052;-76
2021/05/08 07:59:43;;;;;;;5.95;2.83;;;13.10;46.60;;;;;;5044128;28;20056;-74
2021/05/08 08:02:11;;;;;;;4.22;2.70;;;12.90;47.00;;;;;;5037841;28;20534;-74
2021/05/08 08:04:40;;;;;;;6.47;2.95;;;13.00;47.10;;;;;;5039254;28;20049;-76
2021/05/08 08:07:06;;;;;;;5.40;3.17;;;13.40;46.90;;;;;;5042702;28;21912;-75
2021/05/08 08:09:33;;;;;;;5.25;3.20;;;13.60;47.00;;;;;;5041761;28;20785;-75
2021/05/08 08:12:00;;;;;;;4.43;2.75;;;13.60;46.80;;;;;;5041449;28;20457;-74
2021/05/08 08:14:27;;;;;;;4.90;2.92;;;13.40;46.90;;;;;;5043058;28;20060;-75
2021/05/08 08:16:53;;;;;;;4.65;3.15;;;13.80;46.70;;;;;;5043099;28;20530;-75
2021/05/08 08:19:20;;;;;;;3.88;2.97;;;13.90;45.70;;;;;;5048472;28;20051;-75
2021/05/08 08:21:49;;;;;;;7.38;2.80;;;14.00;46.40;;;;;;5043769;28;20076;-75
2021/05/08 08:24:15;;;;;;;4.97;2.60;;;14.00;46.10;;;;;;5042283;28;22121;-75
2021/05/08 08:26:41;;;;;;;6.00;2.80;;;13.90;45.90;;;;;;5042849;28;20126;-75
2021/05/08 08:29:08;;;;;;;4.63;2.72;;;13.60;46.80;;;;;;5043395;28;20099;-74
2021/05/08 08:31:34;;;;;;;9.43;2.53;;;14.10;46.60;;;;;;5042516;28;20488;-74
2021/05/08 08:34:00;;;;;;;5.13;2.67;;;14.40;45.80;;;;;;5040334;28;20037;-75
2021/05/08 08:36:27;;;;;;;5.80;2.70;;;14.00;45.80;;;;;;5044283;28;20070;-73
2021/05/08 08:38:53;;;;;;;4.38;2.80;;;14.00;45.70;;;;;;5044035;28;20053;-75
2021/05/08 08:41:23;;;;;;;4.85;2.72;;;14.10;45.60;;;;;;5044935;28;20063;-75
2021/05/08 08:43:50;;;;;;;7.15;2.97;;;14.20;45.40;;;;;;5041645;28;20102;-74
2021/05/08 08:46:17;;;;;;;3.25;2.30;;;14.20;45.80;;;;;;5041252;28;20048;-75
2021/05/08 08:48:43;;;;;;;4.10;2.45;;;14.20;45.90;;;;;;5057226;28;20065;-74
2021/05/08 08:51:10;;;;;;;4.93;2.72;;;14.10;45.50;;;;;;5043363;28;20082;-74
2021/05/08 08:53:36;;;;;;;4.78;2.85;;;14.30;45.50;;;;;;5041105;28;20785;-74
2021/05/08 08:56:03;;;;;;;3.45;2.30;;;13.90;45.70;;;;;;5048346;28;20122;-75
2021/05/08 08:58:35;;;;;;;4.40;2.80;;;14.00;46.30;;;;;;5048488;28;20454;-75
2021/05/08 09:01:06;;;;;;;4.60;2.50;;;14.10;45.30;;;;;;5046588;28;20080;-75
2021/05/08 09:03:35;;;;;;;6.85;2.80;;;14.30;45.50;;;;;;5039246;28;20131;-75
2021/05/08 09:06:02;;;;;;;5.25;2.85;;;14.30;45.90;;;;;;5045928;28;20091;-75
2021/05/08 09:08:33;;;;;;;5.90;2.55;;;14.50;45.30;;;;;;5041289;28;20041;-75
2021/05/08 09:11:20;;;;;;;6.53;3.10;;;14.50;44.90;;;;;;5043004;28;20091;-75
2021/05/08 09:13:47;;;;;;;5.20;2.70;;;14.60;44.90;;;;;;5040992;28;20037;-74
2021/05/08 09:16:13;;;;;;;5.05;2.95;;;14.70;44.70;;;;;;5043360;28;20095;-75
2021/05/08 09:18:40;;;;;;;3.10;2.38;;;14.60;45.30;;;;;;5044601;28;20544;-75
2021/05/08 09:21:25;;;;;;;6.63;2.63;;;14.70;45.20;;;;;;5044314;28;20508;-75
2021/05/08 09:23:55;;;;;;;6.38;2.90;;;14.80;45.40;;;;;;5052687;28;20060;-75
2021/05/08 09:26:21;;;;;;;4.50;2.90;;;14.70;44.70;;;;;;5038317;28;20061;-75
2021/05/08 09:28:52;;;;;;;8.23;2.47;;;14.70;45.00;;;;;;5038379;28;20827;-75
2021/05/08 09:31:19;;;;;;;5.07;2.80;;;14.80;44.60;;;;;;5035788;28;20052;-74
2021/05/08 09:33:55;;;;;;;7.20;2.95;;;15.10;44.30;;;;;;5038880;28;20784;-74
2021/05/08 09:36:22;;;;;;;5.18;2.78;;;15.20;44.00;;;;;;5039117;28;20135;-75
2021/05/08 09:38:48;;;;;;;4.85;2.70;;;15.20;43.80;;;;;;5040773;28;20053;-75
2021/05/08 09:41:17;;;;;;;5.10;2.72;;;15.40;43.80;;;;;;5042758;28;20049;-76
2021/05/08 09:43:46;;;;;;;6.93;2.63;;;15.40;43.70;;;;;;5039744;28;20148;-75
2021/05/08 09:46:25;;;;;;;6.60;2.60;;;15.50;43.40;;;;;;5039112;28;20049;-75
2021/05/08 09:49:14;;;;;;;;;;;15.70;42.90;;;;;;5040349;28;20390;-76
2021/05/08 09:51:41;;;;;;;4.43;2.25;;;15.70;42.90;;;;;;5046069;28;19990;-74
2021/05/08 09:54:10;;;;;;;6.72;2.50;;;15.40;43.20;;;;;;5042492;28;20045;-75
2021/05/08 09:56:42;;;;;;;4.95;2.15;;;15.40;43.00;;;;;;5044111;28;20492;-75
2021/05/08 09:59:26;;;;;;;5.43;2.30;;;15.60;43.30;;;;;;5041109;28;20727;-76
2021/05/08 10:02:04;;;;;;;4.55;2.38;;;16.00;42.80;;;;;;5039006;28;20041;-75
2021/05/08 10:04:57;;;;;;;4.78;2.63;;;16.00;42.90;;;;;;5043738;28;20099;-75
2021/05/08 10:07:28;;;;;;;3.20;2.47;;;16.00;42.70;;;;;;5039890;28;20056;-75
2021/05/08 10:10:00;;;;;;;3.85;2.20;;;16.40;42.70;;;;;;5040890;28;20526;-75
2021/05/08 10:12:29;;;;;;;4.32;2.30;;;16.70;41.50;;;;;;5039897;28;20064;-74
2021/05/08 10:14:58;;;;;;;5.03;2.65;;;16.20;41.80;;;;;;5040445;28;20114;-75
2021/05/08 10:17:27;;;;;;;6.90;2.20;;;16.10;42.70;;;;;;5052699;28;20055;-74
2021/05/08 10:20:06;;;;;;;3.20;2.05;;;16.30;42.00;;;;;;5036815;28;20156;-74
2021/05/08 10:22:35;;;;;;;2.90;2.00;;;16.50;42.10;;;;;;5038439;28;20056;-74
2021/05/08 10:25:05;;;;;;;5.32;2.20;;;16.50;42.50;;;;;;5040571;28;20496;-74
2021/05/08 10:27:32;;;;;;;4.45;1.80;;;16.40;41.90;;;;;;5041084;28;20255;-75
2021/05/08 10:30:00;;;;;;;5.75;2.45;;;16.50;41.80;;;;;;5039698;28;20131;-75
2021/05/08 10:32:27;;;;;;;3.03;1.58;;;16.90;40.60;;;;;;5039733;28;20091;-73
2021/05/08 10:35:03;;;;;;;3.15;1.90;;;17.10;40.60;;;;;;5041284;28;20458;-73
2021/05/08 10:37:30;;;;;;;2.30;1.48;;;17.10;40.80;;;;;;5037707;28;20053;-74
2021/05/08 10:40:08;;;;;;;2.42;1.45;;;17.70;38.50;;;;;;5040073;28;20045;-74
2021/05/08 10:42:43;;;;;;;5.05;2.30;;;17.90;37.70;;;;;;5043101;28;20045;-75
2021/05/08 10:45:13;;;;;;;3.70;1.90;;;17.70;39.80;;;;;;5039176;28;20108;-75
2021/05/08 10:47:54;;;;;;;2.97;1.85;;;17.70;39.40;;;;;;5040652;28;20052;-76
2021/05/08 10:50:41;;;;;;;2.28;1.80;;;17.50;39.50;;;;;;5046262;28;20065;-73
2021/05/08 10:53:15;;;;;;;5.60;1.63;;;17.20;40.30;;;;;;5034854;28;20052;-74
2021/05/08 10:55:59;;;;;;;4.50;2.00;;;17.30;40.10;;;;;;5027634;28;20045;-75
2021/05/08 10:58:26;;;;;;;5.15;1.63;;;17.60;40.20;;;;;;5025798;28;20484;-74
2021/05/08 11:01:05;;;;;;;3.35;1.50;;;17.70;39.40;;;;;;5026132;28;20053;-81
2021/05/08 11:03:47;;;;;;;3.97;1.58;;;17.90;39.00;;;;;;5029758;28;20052;-80
2021/05/08 11:06:14;;;;;;;2.83;1.20;;;18.00;38.80;;;;;;5053843;28;20048;-82
2021/05/08 11:08:43;;;;;;;5.07;1.80;;;17.70;37.40;;;;;;5034730;28;20179;-78
2021/05/08 11:11:12;;;;;;;9.77;3.95;;;17.60;37.10;;;;;;5031099;28;20111;-78
2021/05/08 11:13:42;;;;;;;4.47;1.75;;;17.80;36.80;;;;;;5028234;28;20071;-70
2021/05/08 11:16:14;;;;;;;1.80;1.25;;;17.80;37.10;;;;;;5029349;28;20053;-71
2021/05/08 11:18:44;;;;;;;6.10;2.65;;;17.50;35.80;;;;;;5027481;28;20114;-71
2021/05/08 11:21:14;;;;;;;5.50;1.60;;;17.50;36.40;;;;;;5031010;28;20431;-72
2021/05/08 11:23:44;;;;;;;2.40;1.40;;;17.30;36.60;;;;;;5028595;28;20060;-72
2021/05/08 11:28:53;;;;;;;4.65;2.28;;;18.00;35.70;;;;;;5027473;28;20743;-72
2021/05/08 11:31:34;;;;;;;6.72;2.88;;;18.10;37.00;;;;;;5026115;28;20049;-72
2021/05/08 11:34:07;;;;;;;4.25;1.73;;;18.10;38.70;;;;;;5023253;28;20518;-72
2021/05/08 11:37:01;;;;;;;2.65;1.50;;;17.90;36.90;;;;;;5024633;28;20072;-72
2021/05/08 11:39:29;;;;;;;2.10;1.20;;;17.60;37.60;;;;;;5042065;28;20057;-72
2021/05/08 11:42:00;;;;;;;2.88;1.67;;;17.50;36.90;;;;;;5026969;28;20063;-71
2021/05/08 11:44:28;;;;;;;5.35;1.30;;;17.50;37.10;;;;;;5026080;28;20049;-72
2021/05/08 11:46:58;;;;;;;2.53;1.50;;;17.20;37.40;;;;;;5029049;28;20053;-71
2021/05/08 11:49:26;;;;;;;3.22;1.50;;;17.50;37.30;;;;;;5028359;28;20110;-71
2021/05/08 11:51:52;;;;;;;8.05;1.75;;;17.70;37.30;;;;;;5032372;28;20166;-72
2021/05/08 11:54:18;;;;;;;2.60;1.40;;;17.80;36.30;;;;;;5028965;28;20049;-72
2021/05/08 11:56:45;;;;;;;2.47;1.30;;;17.30;36.60;;;;;;5031730;28;20572;-70
2021/05/08 11:59:11;;;;;;;2.22;1.40;;;17.50;37.80;;;;;;5030585;28;20103;-71
2021/05/08 12:01:39;;;;;;;2.72;1.58;;;17.40;37.70;;;;;;5032913;28;20052;-72
2021/05/08 12:04:08;;;;;;;4.07;1.50;;;17.30;37.80;;;;;;5031521;28;20049;-83
2021/05/08 12:06:38;;;;;;;2.88;1.40;;;16.80;37.70;;;;;;5032284;28;20140;-76
2021/05/08 12:09:10;;;;;;;2.17;1.33;;;17.00;38.00;;;;;;5034153;28;20060;-75
2021/05/08 12:11:37;;;;;;;2.42;1.05;;;16.90;37.20;;;;;;5032572;28;20165;-75
2021/05/08 12:14:11;;;;;;;2.28;1.40;;;17.20;37.10;;;;;;5030367;28;20059;-74
2021/05/08 12:16:40;;;;;;;4.60;1.50;;;17.00;37.70;;;;;;5036549;28;20048;-74
2021/05/08 12:19:07;;;;;;;5.00;1.67;;;17.20;37.50;;;;;;5034723;28;20053;-74
2021/05/08 12:21:39;;;;;;;6.47;1.48;;;17.50;37.10;;;;;;5058052;28;20061;-75
2021/05/08 12:24:06;;;;;;;5.00;1.55;;;17.50;37.40;;;;;;5032152;28;20126;-75
2021/05/08 12:26:34;;;;;;;4.57;1.48;;;17.50;37.10;;;;;;5033962;28;20377;-74
2021/05/08 12:29:01;;;;;;;3.08;1.38;;;17.30;37.30;;;;;;5037646;28;20049;-74
2021/05/08 12:31:31;;;;;;;3.03;1.40;;;17.00;37.70;;;;;;5035991;28;20057;-75
2021/05/08 12:33:59;;;;;;;3.03;1.35;;;17.10;38.30;;;;;;5056898;28;20144;-75
2021/05/08 12:36:26;;;;;;;2.88;1.40;;;17.50;38.00;;;;;;5036875;28;20089;-74
2021/05/08 12:38:55;;;;;;;6.00;1.50;;;17.80;37.80;;;;;;5033232;28;20056;-74
2021/05/08 12:41:35;;;;;;;4.60;1.38;;;17.70;37.30;;;;;;5035220;28;20722;-74
2021/05/08 12:44:13;;;;;;;4.28;1.10;;;17.40;37.80;;;;;;5031946;28;20045;-75
2021/05/08 12:47:03;;;;;;;3.28;1.20;;;17.40;37.40;;;;;;5033004;28;20061;-75
2021/05/08 12:49:32;;;;;;;2.95;1.20;;;17.60;37.10;;;;;;5034311;28;20056;-75
2021/05/08 12:52:26;;;;;;;3.85;1.10;;;17.60;37.00;;;;;;5034199;28;20056;-73
2021/05/08 12:54:56;;;;;;;2.65;1.38;;;17.40;36.70;;;;;;5053891;28;20070;-73
2021/05/08 12:57:32;;;;;;;1.58;1.20;;;17.20;37.60;;;;;;5034203;28;20489;-75
2021/05/08 13:00:06;;;;;;;3.80;1.40;;;17.20;37.60;;;;;;5032714;28;20992;-75
2021/05/08 13:02:33;;;;;;;1.83;1.27;;;17.30;38.00;;;;;;5031488;28;20476;-74
2021/05/08 13:05:07;;;;;;;1.50;1.10;;;17.10;38.20;;;;;;5033889;28;20138;-73